Time;durP1;ratioP1;P1;durP2;ratioP2;P2;SDS_P1;SDS_P2;PMS_P1;PMS_P2;Temp;Humidity;BMP_temperature;BMP_pressure;BME280_temperature;BME280_humidity;BME280_pressure;Samples;Min_cycle;Max_cycle;Signal;HPM_P1;HPM_P2
2023/09/17 00:02:07;;;;;;;12.80;11.18;;;23.50;99.90;;;;;;4859068;29;20093;-80
2023/09/17 00:04:33;;;;;;;13.30;11.90;;;23.50;99.90;;;;;;4859232;29;20471;-79
2023/09/17 00:07:00;;;;;;;13.50;12.10;;;23.50;99.90;;;;;;4876491;29;20563;-80
2023/09/17 00:09:26;;;;;;;14.02;11.02;;;23.50;99.90;;;;;;4878764;29;20060;-80
2023/09/17 00:11:53;;;;;;;13.80;12.32;;;23.60;99.90;;;;;;4860559;29;20030;-81
2023/09/17 00:14:19;;;;;;;13.65;12.25;;;23.60;99.90;;;;;;4863112;29;20093;-80
2023/09/17 00:16:46;;;;;;;15.70;11.98;;;23.60;99.90;;;;;;4878448;29;20447;-80
2023/09/17 00:19:13;;;;;;;14.52;13.00;;;23.60;99.90;;;;;;4864356;29;20069;-81
2023/09/17 00:21:39;;;;;;;13.90;12.60;;;23.60;99.90;;;;;;4872836;29;20029;-80
2023/09/17 00:24:06;;;;;;;14.15;12.40;;;23.50;99.90;;;;;;4878834;29;20048;-80
2023/09/17 00:26:32;;;;;;;13.80;12.50;;;23.50;99.90;;;;;;4878598;29;20036;-80
2023/09/17 00:29:00;;;;;;;14.38;12.98;;;23.50;99.90;;;;;;4878664;29;20028;-80
2023/09/17 00:31:27;;;;;;;18.23;13.40;;;23.60;99.90;;;;;;4878722;29;20029;-80
2023/09/17 00:33:54;;;;;;;14.65;13.07;;;23.60;99.90;;;;;;4861819;29;20436;-80
2023/09/17 00:36:21;;;;;;;15.00;13.60;;;23.60;99.90;;;;;;4878513;29;20045;-80
2023/09/17 00:38:47;;;;;;;14.70;13.20;;;23.60;99.90;;;;;;4862076;29;20029;-80
2023/09/17 00:41:13;;;;;;;14.95;13.35;;;23.60;99.90;;;;;;4861918;29;20452;-80
2023/09/17 00:43:40;;;;;;;14.13;12.60;;;23.60;99.90;;;;;;4878639;29;20025;-80
2023/09/17 00:46:07;;;;;;;14.45;13.15;;;23.60;99.90;;;;;;4878937;29;20076;-80
2023/09/17 00:48:33;;;;;;;14.73;13.20;;;23.50;99.90;;;;;;4881004;29;20490;-79
2023/09/17 00:51:00;;;;;;;14.43;13.02;;;23.50;99.90;;;;;;4864676;29;20119;-79
2023/09/17 00:53:29;;;;;;;13.93;12.60;;;23.50;99.90;;;;;;4881682;29;20153;-78
2023/09/17 00:55:56;;;;;;;14.02;12.73;;;23.50;99.90;;;;;;4864570;29;20120;-80
2023/09/17 00:58:23;;;;;;;14.63;13.20;;;23.50;99.90;;;;;;4881858;29;20356;-79
2023/09/17 01:00:51;;;;;;;13.35;12.05;;;23.50;99.90;;;;;;4881414;29;20113;-78
2023/09/17 01:03:18;;;;;;;20.45;13.85;;;23.50;99.90;;;;;;4866129;29;20035;-86
2023/09/17 01:05:45;;;;;;;16.50;13.45;;;23.50;99.90;;;;;;4862236;29;20041;-85
2023/09/17 01:08:12;;;;;;;15.25;12.55;;;23.50;99.90;;;;;;4862840;29;20392;-86
2023/09/17 01:10:42;;;;;;;14.40;13.00;;;23.50;99.90;;;;;;4862601;29;20089;-85
2023/09/17 09:01:49;;;;;;;26.73;25.02;;;29.90;99.90;;;;;;5084685;23;20075;-81
2023/09/17 09:04:16;;;;;;;27.30;25.40;;;29.80;99.90;;;;;;4883291;29;20033;-79
2023/09/17 09:06:45;;;;;;;26.58;24.65;;;29.70;99.90;;;;;;4899954;29;20028;-74
2023/09/17 09:09:13;;;;;;;26.58;24.92;;;29.80;99.90;;;;;;4888370;29;20107;-74
2023/09/17 09:11:39;;;;;;;27.45;25.65;;;29.60;99.90;;;;;;4888741;29;20025;-74
2023/09/17 09:14:07;;;;;;;26.00;24.35;;;29.50;99.90;;;;;;4900377;29;20029;-74
2023/09/17 09:16:37;;;;;;;26.30;24.70;;;29.40;99.90;;;;;;4900246;29;20084;-74
2023/09/17 09:19:05;;;;;;;26.15;24.35;;;29.40;99.90;;;;;;4900246;29;20052;-74
2023/09/17 09:21:31;;;;;;;25.85;24.25;;;29.40;99.90;;;;;;4890375;29;20056;-74
2023/09/17 09:23:58;;;;;;;25.73;24.13;;;29.50;99.90;;;;;;4884072;29;20035;-74
2023/09/17 09:26:44;;;;;;;26.23;24.52;;;29.60;99.90;;;;;;4899893;29;20371;-74
2023/09/17 09:29:13;;;;;;;26.05;24.38;;;29.30;99.90;;;;;;4867828;29;20047;-74
2023/09/17 09:31:40;;;;;;;27.27;25.25;;;29.40;99.90;;;;;;4873278;29;20483;-74
2023/09/17 09:34:07;;;;;;;26.63;25.02;;;29.30;99.90;;;;;;4866464;29;20495;-74
2023/09/17 09:36:36;;;;;;;27.02;25.40;;;29.60;99.90;;;;;;4849062;29;20384;-74
2023/09/17 09:39:03;;;;;;;27.85;26.05;;;29.40;99.90;;;;;;4864565;29;20032;-74
2023/09/17 09:41:32;;;;;;;27.60;25.75;;;29.30;99.90;;;;;;4880592;29;20021;-74
2023/09/17 09:44:00;;;;;;;28.02;26.33;;;29.40;99.90;;;;;;4895356;29;20032;-75
2023/09/17 09:46:28;;;;;;;26.88;25.17;;;29.60;99.90;;;;;;4899777;29;20049;-75
2023/09/17 09:49:01;;;;;;;27.13;25.33;;;29.80;99.90;;;;;;4899781;29;20088;-75
2023/09/17 09:51:29;;;;;;;27.58;25.77;;;29.60;99.90;;;;;;4890569;29;20040;-75
2023/09/17 09:53:56;;;;;;;27.33;25.40;;;29.80;99.90;;;;;;4894626;29;20028;-75
2023/09/17 09:56:30;;;;;;;27.75;25.73;;;29.60;99.90;;;;;;4899407;29;20077;-75
2023/09/17 09:59:00;;;;;;;27.10;25.17;;;29.50;99.90;;;;;;4883658;29;20028;-75
2023/09/17 10:01:28;;;;;;;27.05;25.25;;;29.30;99.90;;;;;;4890266;29;20049;-74
2023/09/17 10:03:58;;;;;;;26.80;25.10;;;29.30;99.90;;;;;;4893561;29;20482;-75
2023/09/17 10:06:25;;;;;;;27.77;25.95;;;29.20;99.90;;;;;;4899387;29;20040;-75
2023/09/17 10:08:52;;;;;;;28.50;26.60;;;29.40;99.90;;;;;;4898180;29;20036;-75
2023/09/17 10:11:22;;;;;;;28.08;26.33;;;29.60;99.90;;;;;;4886074;29;20100;-75
2023/09/17 10:13:51;;;;;;;27.73;26.00;;;29.80;99.90;;;;;;4880780;29;20483;-75
2023/09/17 10:16:18;;;;;;;27.85;25.85;;;30.00;99.90;;;;;;4880256;29;20515;-75
2023/09/17 10:18:46;;;;;;;27.27;25.27;;;30.00;99.90;;;;;;4851082;29;20483;-75
2023/09/17 10:21:14;;;;;;;26.77;24.77;;;29.50;99.90;;;;;;4891763;29;20033;-75
2023/09/17 10:23:42;;;;;;;27.05;25.33;;;29.40;99.90;;;;;;4880387;29;20053;-75
2023/09/17 10:26:10;;;;;;;26.23;24.63;;;29.60;99.90;;;;;;4880280;29;20037;-75
2023/09/17 10:28:37;;;;;;;26.80;25.00;;;29.50;99.90;;;;;;4880259;29;20029;-75
2023/09/17 10:31:06;;;;;;;26.27;24.45;;;29.40;99.90;;;;;;4891344;29;20044;-75
2023/09/17 10:33:34;;;;;;;26.13;24.42;;;29.40;99.90;;;;;;4880217;29;20033;-74
2023/09/17 10:36:05;;;;;;;25.60;23.98;;;29.40;99.90;;;;;;4880045;29;20068;-75
2023/09/17 10:38:35;;;;;;;25.90;24.15;;;29.30;99.90;;;;;;4880098;29;20032;-74
2023/09/17 10:41:07;;;;;;;26.35;24.65;;;29.10;99.90;;;;;;4879972;29;20017;-75
2023/09/17 10:43:38;;;;;;;26.10;24.42;;;29.20;99.90;;;;;;4898106;29;20048;-75
2023/09/17 10:46:08;;;;;;;26.10;24.27;;;29.40;99.90;;;;;;4898635;29;20076;-75
2023/09/17 10:48:37;;;;;;;26.10;24.50;;;29.50;99.90;;;;;;4897406;29;20120;-75
2023/09/17 10:51:03;;;;;;;26.90;25.02;;;29.40;99.90;;;;;;4876469;29;20120;-75
2023/09/17 10:53:30;;;;;;;26.35;24.55;;;29.30;99.90;;;;;;4881567;29;20067;-75
2023/09/17 10:56:09;;;;;;;26.08;24.27;;;29.00;99.90;;;;;;4898398;29;20497;-75
2023/09/17 10:58:52;;;;;;;25.85;24.17;;;29.20;99.90;;;;;;4898557;29;20029;-75
2023/09/17 11:01:28;;;;;;;26.10;24.27;;;29.20;99.90;;;;;;4891113;29;20056;-75
2023/09/17 11:04:18;;;;;;;25.70;24.00;;;29.20;99.90;;;;;;4879679;29;20056;-75
2023/09/17 11:06:47;;;;;;;25.95;24.25;;;29.20;99.90;;;;;;4890956;29;20132;-76
2023/09/17 11:09:15;;;;;;;25.85;24.15;;;29.60;99.90;;;;;;4898267;29;20032;-75
2023/09/17 11:11:43;;;;;;;26.17;24.38;;;29.30;99.90;;;;;;4888422;29;20145;-76
2023/09/17 11:14:10;;;;;;;26.60;24.80;;;29.50;99.90;;;;;;4879605;29;20367;-75
2023/09/17 11:16:39;;;;;;;25.83;24.23;;;29.40;99.90;;;;;;4879555;29;20033;-76
2023/09/17 11:19:16;;;;;;;26.33;24.63;;;29.40;99.90;;;;;;4880414;29;20386;-75
2023/09/17 11:22:07;;;;;;;26.05;24.35;;;29.50;99.90;;;;;;4888209;29;20128;-76
2023/09/17 11:24:36;;;;;;;25.92;24.13;;;29.50;99.90;;;;;;4862837;29;20036;-75
2023/09/17 11:27:11;;;;;;;26.65;24.85;;;29.40;99.90;;;;;;4879348;29;20049;-76
2023/09/17 11:29:40;;;;;;;26.63;24.20;;;29.50;99.90;;;;;;4882512;29;20482;-75
2023/09/17 11:32:07;;;;;;;27.00;25.30;;;29.60;99.90;;;;;;4885017;29;20029;-75
2023/09/17 11:34:38;;;;;;;27.23;25.20;;;29.50;99.90;;;;;;4879353;29;20052;-76
2023/09/17 11:37:05;;;;;;;26.80;24.95;;;29.50;99.90;;;;;;4862595;29;20057;-75
2023/09/17 11:39:36;;;;;;;26.88;25.00;;;29.50;99.90;;;;;;4879090;29;20423;-76
2023/09/17 11:42:07;;;;;;;26.83;25.02;;;29.70;99.90;;;;;;4870354;29;20040;-76
2023/09/17 11:44:36;;;;;;;26.40;24.58;;;29.50;99.90;;;;;;4897769;29;20518;-76
2023/09/17 11:47:05;;;;;;;25.80;24.00;;;29.20;99.90;;;;;;4894108;29;20048;-75
2023/09/17 11:49:32;;;;;;;26.05;24.25;;;29.00;99.90;;;;;;4897868;29;20025;-75
2023/09/17 11:51:59;;;;;;;26.73;25.02;;;29.10;99.90;;;;;;4886171;29;20037;-75
2023/09/17 11:54:40;;;;;;;26.70;24.90;;;29.50;99.90;;;;;;4879134;29;20271;-75
2023/09/17 11:57:23;;;;;;;27.02;25.33;;;29.50;99.90;;;;;;4884608;29;20032;-75
2023/09/17 11:59:50;;;;;;;27.10;25.20;;;29.40;99.90;;;;;;4897849;29;20058;-76
2023/09/17 12:02:18;;;;;;;27.10;25.20;;;29.50;99.90;;;;;;4883893;29;20049;-76
2023/09/17 12:04:46;;;;;;;27.30;25.30;;;29.40;99.90;;;;;;4879042;29;20395;-76
2023/09/17 12:07:13;;;;;;;27.75;25.60;;;29.60;99.90;;;;;;4878877;29;20037;-75
2023/09/17 12:10:04;;;;;;;27.63;25.80;;;29.70;99.90;;;;;;4870173;29;20506;-76
2023/09/17 12:12:41;;;;;;;27.75;25.95;;;29.90;99.90;;;;;;4882032;29;20125;-76
2023/09/17 12:15:12;;;;;;;29.77;27.60;;;30.00;99.90;;;;;;4878574;29;20467;-75
2023/09/17 12:17:41;;;;;;;28.25;26.45;;;29.80;99.90;;;;;;4878985;29;20029;-75
2023/09/17 12:20:56;;;;;;;27.83;26.13;;;29.80;99.90;;;;;;4878942;29;20446;-76
2023/09/17 12:23:06;;;;;;;28.38;26.52;;;29.60;99.90;;;;;;4859727;29;20483;-76
2023/09/17 12:25:43;;;;;;;28.40;26.33;;;29.80;99.90;;;;;;4860219;29;20090;-76
2023/09/17 12:28:09;;;;;;;28.02;25.88;;;29.70;99.90;;;;;;4860323;29;20033;-76
2023/09/17 12:30:36;;;;;;;27.38;25.42;;;29.70;99.90;;;;;;4860364;29;20030;-76
2023/09/17 12:33:05;;;;;;;27.23;25.42;;;29.50;99.90;;;;;;4883573;29;20550;-75
2023/09/17 12:35:35;;;;;;;27.60;25.60;;;29.50;99.90;;;;;;4897484;29;20124;-76
2023/09/17 12:38:03;;;;;;;27.88;25.98;;;29.30;99.90;;;;;;4897343;29;20025;-76
2023/09/17 12:40:29;;;;;;;28.48;26.58;;;29.50;99.90;;;;;;4897407;29;20070;-75
2023/09/17 12:42:57;;;;;;;27.27;25.48;;;29.50;99.90;;;;;;4880930;29;20029;-76
2023/09/17 12:45:23;;;;;;;27.15;25.35;;;29.50;99.90;;;;;;4892138;29;20028;-76
2023/09/17 12:47:50;;;;;;;26.90;25.20;;;29.40;99.90;;;;;;4900888;29;20100;-76
2023/09/17 12:50:18;;;;;;;26.67;24.95;;;29.60;99.90;;;;;;4900772;29;20021;-76
2023/09/17 12:52:45;;;;;;;26.65;24.85;;;29.60;99.90;;;;;;4884095;29;20029;-75
2023/09/17 12:55:11;;;;;;;26.92;25.23;;;29.50;99.90;;;;;;4882038;29;20073;-75
2023/09/17 12:57:40;;;;;;;26.95;25.25;;;29.50;99.90;;;;;;4882926;29;20037;-76
2023/09/17 13:00:07;;;;;;;27.42;25.63;;;29.40;99.90;;;;;;4881737;29;20032;-76
2023/09/17 13:02:38;;;;;;;27.60;25.60;;;29.10;99.90;;;;;;4881726;29;20041;-76
2023/09/17 13:05:05;;;;;;;28.17;25.77;;;29.10;99.90;;;;;;4881325;29;20060;-75
2023/09/17 13:07:32;;;;;;;27.10;25.33;;;29.10;99.90;;;;;;4881744;29;20155;-76
2023/09/17 13:09:59;;;;;;;26.38;24.70;;;29.30;99.90;;;;;;4898159;29;20482;-76
2023/09/17 13:12:27;;;;;;;26.38;24.70;;;29.30;99.90;;;;;;4886445;29;20032;-76
2023/09/17 13:14:55;;;;;;;27.10;25.20;;;29.40;99.90;;;;;;4881540;29;20052;-76
2023/09/17 13:17:23;;;;;;;27.27;25.33;;;29.30;99.90;;;;;;4864821;29;20108;-76
2023/09/17 13:19:49;;;;;;;27.13;25.33;;;29.10;99.90;;;;;;4881655;29;20424;-76
2023/09/17 13:22:17;;;;;;;27.85;25.95;;;29.20;99.90;;;;;;4881964;29;20033;-75
2023/09/17 13:24:45;;;;;;;27.95;26.08;;;29.20;99.90;;;;;;4881450;29;20081;-76
2023/09/17 13:27:15;;;;;;;27.45;25.73;;;29.10;99.90;;;;;;4881322;29;20033;-76
2023/09/17 13:29:41;;;;;;;27.33;25.60;;;29.20;99.90;;;;;;4881415;29;20077;-76
2023/09/17 13:32:10;;;;;;;27.83;25.70;;;28.90;99.90;;;;;;4884344;29;20064;-76
2023/09/17 13:34:40;;;;;;;27.38;25.38;;;29.10;99.90;;;;;;4900334;29;20416;-76
2023/09/17 13:37:08;;;;;;;27.15;25.35;;;29.20;99.90;;;;;;4899941;29;20032;-76
2023/09/17 13:39:38;;;;;;;27.27;25.45;;;29.10;99.90;;;;;;4899841;29;20024;-76
2023/09/17 13:42:05;;;;;;;27.90;26.00;;;28.90;99.90;;;;;;4882978;29;20557;-76
2023/09/17 13:44:33;;;;;;;27.58;25.77;;;29.00;99.90;;;;;;4887035;29;20032;-77
2023/09/17 13:47:00;;;;;;;28.55;26.45;;;29.00;99.90;;;;;;4899731;29;20111;-76
2023/09/17 13:49:27;;;;;;;27.77;25.98;;;29.00;99.90;;;;;;4900080;29;20061;-76
2023/09/17 13:51:54;;;;;;;28.42;26.52;;;29.00;99.90;;;;;;4890443;29;20029;-76
2023/09/17 13:54:20;;;;;;;28.90;26.80;;;29.10;99.90;;;;;;4880613;29;20026;-76
2023/09/17 13:56:47;;;;;;;27.85;25.95;;;28.90;99.90;;;;;;4881246;29;20395;-76
2023/09/17 13:59:13;;;;;;;28.30;26.50;;;28.90;99.90;;;;;;4889545;29;20058;-77
2023/09/17 14:01:40;;;;;;;28.42;26.38;;;29.10;99.90;;;;;;4891771;29;20176;-76
2023/09/17 14:04:07;;;;;;;28.40;26.60;;;29.10;99.90;;;;;;4880698;29;20507;-77
2023/09/17 14:06:34;;;;;;;28.17;26.27;;;29.00;99.90;;;;;;4880648;29;20056;-76
2023/09/17 14:09:00;;;;;;;28.67;26.77;;;29.00;99.90;;;;;;4889724;29;20025;-76
2023/09/17 14:11:27;;;;;;;28.30;26.50;;;29.00;99.90;;;;;;4893948;29;20029;-76
2023/09/17 14:13:54;;;;;;;28.73;26.92;;;28.80;99.90;;;;;;4880491;29;20017;-76
2023/09/17 14:16:20;;;;;;;28.88;26.95;;;28.80;99.90;;;;;;4880004;29;20058;-76
2023/09/17 14:18:49;;;;;;;29.25;27.25;;;28.70;99.90;;;;;;4880490;29;20157;-76
2023/09/17 14:21:16;;;;;;;29.00;26.92;;;28.80;99.90;;;;;;4881273;29;20032;-76
2023/09/17 14:23:45;;;;;;;29.75;27.45;;;28.90;99.90;;;;;;4880283;29;20066;-76
2023/09/17 14:26:15;;;;;;;28.60;26.80;;;28.90;99.90;;;;;;4880331;29;20124;-76
2023/09/17 14:28:42;;;;;;;28.65;26.63;;;28.80;99.90;;;;;;4899209;29;20036;-76
2023/09/17 14:31:08;;;;;;;28.55;26.75;;;29.00;99.90;;;;;;4896361;29;20037;-76
2023/09/17 14:33:35;;;;;;;28.35;26.48;;;28.90;99.90;;;;;;4876907;29;20035;-76
2023/09/17 14:36:01;;;;;;;29.58;27.55;;;28.80;99.90;;;;;;4898919;29;20028;-76
2023/09/17 16:09:46;;;;;;;27.60;25.80;;;27.20;99.90;;;;;;5596497;23;20083;-84
2023/09/17 16:12:12;;;;;;;25.48;23.95;;;27.20;99.90;;;;;;4862388;29;20036;-85
2023/09/17 16:14:39;;;;;;;26.23;24.50;;;27.10;99.90;;;;;;4862882;29;20431;-85
2023/09/17 16:17:05;;;;;;;26.98;24.98;;;27.00;99.90;;;;;;4864516;29;20063;-86
2023/09/17 16:19:36;;;;;;;27.23;25.17;;;26.90;99.90;;;;;;4865818;29;20033;-83
2023/09/17 16:22:05;;;;;;;27.05;25.13;;;26.80;99.90;;;;;;4870065;29;20689;-84
2023/09/17 16:24:32;;;;;;;26.80;25.05;;;26.60;99.90;;;;;;4857240;29;20119;-85
2023/09/17 16:26:58;;;;;;;27.35;25.20;;;26.60;99.90;;;;;;4887820;29;20041;-82
2023/09/17 16:29:28;;;;;;;26.45;24.55;;;26.60;99.90;;;;;;4855829;29;20399;-83
2023/09/17 16:31:54;;;;;;;26.15;24.35;;;26.50;99.90;;;;;;4867674;29;20029;-83
2023/09/17 16:34:21;;;;;;;25.20;23.58;;;26.50;99.90;;;;;;4868466;29;20450;-86
2023/09/17 16:36:47;;;;;;;26.20;24.40;;;26.40;99.90;;;;;;4869906;29;20081;-82
2023/09/17 16:39:14;;;;;;;25.98;24.13;;;26.30;99.90;;;;;;4886469;29;20043;-82
2023/09/17 16:41:40;;;;;;;25.48;23.88;;;26.20;99.90;;;;;;4867403;29;20081;-83
2023/09/17 16:44:07;;;;;;;25.88;23.98;;;26.20;99.90;;;;;;4848003;29;20056;-82
2023/09/17 16:46:33;;;;;;;25.67;24.02;;;26.10;99.90;;;;;;4868192;29;20076;-84
2023/09/17 16:48:59;;;;;;;25.58;23.83;;;26.10;99.90;;;;;;4852315;29;20021;-84
2023/09/17 16:51:26;;;;;;;25.85;24.08;;;26.00;99.90;;;;;;4884663;29;20057;-84
2023/09/17 16:53:53;;;;;;;25.77;24.08;;;25.90;99.90;;;;;;4887431;29;20031;-82
2023/09/17 16:56:20;;;;;;;25.75;24.10;;;25.90;99.90;;;;;;4883120;29;20331;-82
2023/09/17 16:58:46;;;;;;;26.25;24.15;;;25.80;99.90;;;;;;4866619;29;20049;-82
2023/09/17 17:01:16;;;;;;;25.98;24.10;;;25.70;99.90;;;;;;4866315;29;20040;-83
2023/09/17 17:03:43;;;;;;;25.90;24.10;;;25.60;99.90;;;;;;4882712;29;20096;-85
2023/09/17 17:06:09;;;;;;;25.33;23.60;;;25.60;99.90;;;;;;4852949;29;20068;-87
2023/09/17 17:08:35;;;;;;;27.05;24.52;;;25.50;99.90;;;;;;4854320;29;20029;-82
2023/09/17 17:11:02;;;;;;;25.73;23.95;;;25.50;99.90;;;;;;4869672;29;20045;-83
2023/09/17 17:13:30;;;;;;;25.95;24.17;;;25.40;99.90;;;;;;4866311;29;20035;-82
2023/09/17 17:15:57;;;;;;;25.95;24.05;;;25.40;99.90;;;;;;4881988;29;20017;-81
2023/09/17 17:18:24;;;;;;;26.20;24.30;;;25.30;99.90;;;;;;4864684;29;20029;-81
2023/09/17 17:20:50;;;;;;;25.65;23.90;;;25.20;99.90;;;;;;4881512;29;20112;-81
2023/09/17 17:23:17;;;;;;;24.85;23.35;;;25.10;99.90;;;;;;4881627;29;20093;-81
2023/09/17 17:25:44;;;;;;;26.05;24.20;;;25.10;99.90;;;;;;4881511;29;20021;-80
2023/09/17 17:28:10;;;;;;;25.80;23.88;;;25.10;99.90;;;;;;4883219;29;20057;-82
2023/09/17 17:30:40;;;;;;;26.13;24.25;;;25.00;99.90;;;;;;4864779;29;20387;-82
2023/09/17 17:33:06;;;;;;;26.20;24.33;;;25.00;99.90;;;;;;4851251;29;20132;-83
2023/09/17 17:35:32;;;;;;;26.45;24.40;;;25.00;99.90;;;;;;4864629;29;20029;-83
2023/09/17 17:37:59;;;;;;;25.05;23.45;;;24.90;99.90;;;;;;4849274;29;20037;-82
2023/09/17 17:40:26;;;;;;;25.35;23.75;;;24.90;99.90;;;;;;4864554;29;20029;-83
2023/09/17 17:42:56;;;;;;;25.52;23.88;;;24.90;99.90;;;;;;4864635;29;20486;-83
2023/09/17 17:45:22;;;;;;;26.00;24.00;;;24.80;99.90;;;;;;4849035;29;20036;-83
2023/09/17 17:47:49;;;;;;;24.67;22.92;;;24.70;99.90;;;;;;4864086;29;20037;-83
2023/09/17 17:50:16;;;;;;;24.42;22.63;;;24.70;99.90;;;;;;4848344;29;20032;-83
2023/09/17 17:52:43;;;;;;;25.92;23.60;;;24.70;99.90;;;;;;4864279;29;20037;-83
2023/09/17 17:55:16;;;;;;;25.05;23.02;;;24.70;99.90;;;;;;4864201;29;20033;-83
2023/09/17 17:57:42;;;;;;;24.80;22.95;;;24.60;99.90;;;;;;4864332;29;20195;-81
2023/09/17 18:00:09;;;;;;;24.00;22.50;;;24.60;99.90;;;;;;4864161;29;20033;-83
2023/09/17 18:02:38;;;;;;;24.20;22.50;;;24.50;99.90;;;;;;4881035;29;20049;-83
2023/09/17 18:05:06;;;;;;;23.80;22.05;;;24.50;99.90;;;;;;4881335;29;20104;-86
2023/09/17 18:07:33;;;;;;;23.83;21.98;;;24.40;99.90;;;;;;4864789;29;20083;-85
2023/09/17 18:10:06;;;;;;;23.42;21.80;;;24.40;99.90;;;;;;4879639;29;20553;-85
2023/09/17 18:12:36;;;;;;;23.95;22.30;;;24.30;99.90;;;;;;4864693;29;20164;-85
2023/09/17 18:15:03;;;;;;;21.77;20.38;;;24.30;99.90;;;;;;4864600;29;20040;-82
2023/09/17 18:17:30;;;;;;;22.02;20.45;;;24.30;99.90;;;;;;4848773;29;20036;-80
2023/09/17 18:19:57;;;;;;;22.00;20.48;;;24.30;99.90;;;;;;4880698;29;20032;-83
2023/09/17 18:22:24;;;;;;;21.77;20.20;;;24.20;99.90;;;;;;4864279;29;20032;-83
2023/09/17 18:24:50;;;;;;;21.15;19.75;;;24.20;99.90;;;;;;4880788;29;20032;-84
2023/09/17 18:27:17;;;;;;;21.42;19.83;;;24.10;99.90;;;;;;4864299;29;20033;-85
2023/09/17 18:29:46;;;;;;;20.80;19.30;;;24.10;99.90;;;;;;4864579;29;20033;-83
2023/09/17 18:32:12;;;;;;;21.08;19.42;;;24.10;99.90;;;;;;4864376;29;20386;-82
2023/09/17 18:34:39;;;;;;;20.35;18.95;;;24.10;99.90;;;;;;4880787;29;20033;-85
2023/09/17 18:37:06;;;;;;;19.35;17.80;;;24.00;99.90;;;;;;4881070;29;20025;-84
2023/09/17 18:39:33;;;;;;;19.25;17.70;;;24.00;99.90;;;;;;4847696;29;20029;-84
2023/09/17 18:41:59;;;;;;;18.58;17.27;;;24.00;99.90;;;;;;4848035;29;20120;-83
2023/09/17 18:44:26;;;;;;;18.73;17.33;;;23.90;99.90;;;;;;4863965;29;20030;-87
2023/09/17 18:46:53;;;;;;;18.10;16.80;;;23.90;99.90;;;;;;4849189;29;20093;-86
2023/09/17 18:49:19;;;;;;;17.50;16.20;;;23.90;99.90;;;;;;4881692;29;20113;-85
2023/09/17 18:51:47;;;;;;;16.63;15.50;;;23.90;99.90;;;;;;4859458;29;20382;-82
2023/09/17 18:54:14;;;;;;;16.02;14.93;;;23.90;99.90;;;;;;4861617;29;20034;-83
2023/09/17 18:56:43;;;;;;;16.63;15.43;;;23.80;99.90;;;;;;4861340;29;20037;-83
2023/09/17 18:59:10;;;;;;;16.83;15.45;;;23.80;99.90;;;;;;4844728;29;20037;-83
2023/09/17 19:01:38;;;;;;;20.13;15.63;;;23.80;99.90;;;;;;4877318;29;20033;-83
2023/09/17 19:04:07;;;;;;;15.68;14.48;;;23.80;99.90;;;;;;4863281;29;20431;-84
2023/09/17 19:06:34;;;;;;;15.70;14.50;;;23.70;99.90;;;;;;4863173;29;20037;-82
2023/09/17 19:09:03;;;;;;;15.40;14.32;;;23.70;99.90;;;;;;4864170;29;20037;-82
2023/09/17 19:11:30;;;;;;;15.35;14.38;;;23.70;99.90;;;;;;4847277;29;20053;-85
2023/09/17 19:14:02;;;;;;;15.43;14.18;;;23.60;99.90;;;;;;4848952;29;20030;-82
2023/09/17 19:16:32;;;;;;;15.02;14.00;;;23.60;99.90;;;;;;4862032;29;20037;-82
2023/09/17 19:18:58;;;;;;;15.98;14.55;;;23.60;99.90;;;;;;4844617;29;20037;-81
2023/09/17 19:21:25;;;;;;;14.95;13.85;;;23.70;99.90;;;;;;4847957;29;20033;-81
2023/09/17 19:23:53;;;;;;;15.02;13.77;;;23.60;99.90;;;;;;4862738;29;20469;-79
2023/09/17 19:26:20;;;;;;;14.90;13.60;;;23.60;99.90;;;;;;4879374;29;20052;-81
2023/09/17 19:28:47;;;;;;;14.60;13.60;;;23.60;99.90;;;;;;4879332;29;20028;-80
2023/09/17 19:31:13;;;;;;;14.68;13.30;;;23.60;99.90;;;;;;4879249;29;20053;-82
2023/09/17 19:33:39;;;;;;;14.70;13.52;;;23.60;99.90;;;;;;4862610;29;20506;-80
2023/09/17 19:36:06;;;;;;;14.30;13.20;;;23.60;99.90;;;;;;4862721;29;20040;-83
2023/09/17 19:38:34;;;;;;;14.18;13.13;;;23.60;99.90;;;;;;4863766;29;20077;-86
2023/09/17 19:41:02;;;;;;;14.15;12.82;;;23.60;99.90;;;;;;4863905;29;20032;-86
2023/09/17 19:43:28;;;;;;;14.25;13.15;;;23.60;99.90;;;;;;4863578;29;20028;-86
2023/09/17 19:45:57;;;;;;;13.55;12.55;;;23.50;99.90;;;;;;4863425;29;20035;-86
2023/09/17 19:48:24;;;;;;;13.68;12.77;;;23.50;99.90;;;;;;4848261;29;20029;-87
2023/09/17 19:50:51;;;;;;;13.52;12.63;;;23.50;99.90;;;;;;4864267;29;20048;-87
2023/09/17 19:53:20;;;;;;;13.77;12.77;;;23.50;99.90;;;;;;4869648;29;20036;-86
2023/09/17 19:55:47;;;;;;;14.98;13.70;;;23.50;99.90;;;;;;4869455;29;20052;-87
2023/09/17 19:58:14;;;;;;;14.10;13.20;;;23.50;99.90;;;;;;4854001;29;20029;-86
2023/09/17 20:00:41;;;;;;;13.93;12.90;;;23.50;99.90;;;;;;4853801;29;20526;-88
2023/09/17 20:03:07;;;;;;;13.80;12.55;;;23.50;99.90;;;;;;4869635;29;20169;-87
2023/09/17 20:05:34;;;;;;;13.35;12.35;;;23.50;99.90;;;;;;4854232;29;20056;-86
2023/09/17 20:08:07;;;;;;;13.52;12.55;;;23.50;99.90;;;;;;4854323;29;20041;-86
2023/09/17 20:10:36;;;;;;;14.25;13.02;;;23.50;99.90;;;;;;4853934;29;20078;-86
2023/09/17 20:13:03;;;;;;;13.60;12.55;;;23.50;99.90;;;;;;4869053;29;20073;-85
2023/09/17 20:15:29;;;;;;;13.45;12.52;;;23.40;99.90;;;;;;4869495;29;20021;-85
2023/09/17 20:17:57;;;;;;;12.82;11.85;;;23.40;99.90;;;;;;4885724;29;20029;-85
2023/09/17 20:20:28;;;;;;;13.02;12.13;;;23.30;99.90;;;;;;4869396;29;20104;-86
2023/09/17 20:22:55;;;;;;;13.85;12.75;;;23.30;99.90;;;;;;4869604;29;20025;-87
2023/09/17 20:25:21;;;;;;;13.10;11.88;;;23.20;99.90;;;;;;4853673;29;20115;-86
2023/09/17 20:27:56;;;;;;;12.98;12.07;;;23.20;99.90;;;;;;4853653;29;20502;-85
2023/09/17 20:30:25;;;;;;;12.55;11.70;;;23.20;99.90;;;;;;4869003;29;20029;-85
2023/09/17 20:32:53;;;;;;;12.93;12.10;;;23.20;99.90;;;;;;4854132;29;20119;-86
2023/09/17 20:35:19;;;;;;;12.98;11.98;;;23.20;99.90;;;;;;4869575;29;20115;-84
2023/09/17 20:37:46;;;;;;;12.05;11.23;;;23.10;99.90;;;;;;4868573;29;20444;-85
2023/09/17 20:40:13;;;;;;;12.90;11.80;;;23.10;99.90;;;;;;4885305;29;20043;-86
2023/09/17 20:42:39;;;;;;;12.55;11.65;;;23.10;99.90;;;;;;4853649;29;20076;-87
2023/09/17 20:45:06;;;;;;;12.45;11.40;;;23.10;99.90;;;;;;4868956;29;20061;-85
2023/09/17 20:47:33;;;;;;;12.57;11.50;;;23.00;99.90;;;;;;4868463;29;20041;-85
2023/09/17 20:49:59;;;;;;;12.88;11.80;;;23.00;99.90;;;;;;4853591;29;20052;-85
2023/09/17 20:52:26;;;;;;;12.38;11.23;;;23.10;99.90;;;;;;4884221;29;20029;-85
2023/09/17 20:54:52;;;;;;;11.88;11.07;;;23.00;99.90;;;;;;4869064;29;20081;-86
2023/09/17 20:57:20;;;;;;;11.90;10.93;;;22.90;99.90;;;;;;4868923;29;20077;-85
2023/09/17 20:59:46;;;;;;;11.45;10.52;;;23.00;99.90;;;;;;4868642;29;20104;-86
2023/09/17 21:02:13;;;;;;;11.75;10.85;;;22.90;99.90;;;;;;4885196;29;20372;-91
2023/09/17 21:04:44;;;;;;;11.45;10.63;;;22.90;99.90;;;;;;4865861;29;20104;-92
2023/09/17 21:07:10;;;;;;;11.85;10.77;;;22.90;99.90;;;;;;4866234;29;20049;-92
2023/09/17 21:09:37;;;;;;;11.73;10.70;;;22.90;99.90;;;;;;4849278;29;20045;-92
2023/09/17 21:12:04;;;;;;;10.95;10.00;;;23.00;99.90;;;;;;4851490;29;20049;-92
2023/09/17 21:14:30;;;;;;;11.27;10.18;;;23.00;99.90;;;;;;4866254;29;20033;-93
2023/09/17 21:16:57;;;;;;;10.90;10.20;;;22.90;99.90;;;;;;4866241;29;20029;-92
2023/09/17 21:19:23;;;;;;;11.57;10.50;;;22.90;99.90;;;;;;4850920;29;20029;-91
2023/09/17 21:21:49;;;;;;;10.77;9.85;;;22.90;99.90;;;;;;4866143;29;20084;-92
2023/09/17 21:24:16;;;;;;;11.02;10.02;;;22.90;99.90;;;;;;4866001;29;20029;-90
2023/09/17 21:26:43;;;;;;;10.70;10.00;;;22.90;99.90;;;;;;4850369;29;20043;-87
2023/09/17 21:29:09;;;;;;;10.70;9.90;;;22.80;99.90;;;;;;4850001;29;20033;-87
2023/09/17 21:31:35;;;;;;;10.50;9.70;;;22.80;99.90;;;;;;4865640;29;20029;-88
2023/09/17 21:34:03;;;;;;;11.27;10.40;;;22.80;99.90;;;;;;4865697;29;20033;-87
2023/09/17 21:36:29;;;;;;;11.73;10.77;;;22.70;99.90;;;;;;4865737;29;20494;-88
2023/09/17 21:38:55;;;;;;;12.80;11.80;;;22.70;99.90;;;;;;4850180;29;20081;-88
2023/09/17 21:41:22;;;;;;;12.52;11.43;;;22.60;99.90;;;;;;4865526;29;20037;-87
